This is the latest recevied weather packets stored in our database for station/object N7NKE. If no packets are shown the sender has not sent any weather packets the latest 10 day(s).
| Time | Temp. | Humidity | Pressure | Rain* | Wind** | Luminosity | Snow |
|---|---|---|---|---|---|---|---|
| 1778100904 | 19.44° C | 71% | 1020.2 hPa | 0 mm | - | 318 W/m² | - |
| 1778096404 | 18.33° C | 72% | 1020.5 hPa | 0 mm | - | 330 W/m² | - |
| 1778093105 | 18.33° C | 72% | 1020.5 hPa | 0 mm | - | 682 W/m² | - |
| 1778092504 | 17.78° C | 73% | 1020.6 hPa | 0 mm | - | 434 W/m² | - |
| 1778091004 | 17.78° C | 72% | 1020.5 hPa | 0 mm | - | 392 W/m² | - |
| 1778089804 | 16.67° C | 77% | 1020.5 hPa | 0 mm | - | 383 W/m² | - |
| 1778088904 | 16.11° C | 79% | 1020.6 hPa | 0 mm | - | 490 W/m² | - |
| 1778088605 | 16.11° C | 79% | 1020.7 hPa | 0 mm | - | 288 W/m² | - |
| 1778087404 | 15.56° C | 80% | 1020.5 hPa | 0 mm | - | 250 W/m² | - |
| 1778078705 | 13.33° C | 87% | 1020.4 hPa | 0 mm | - | 70 W/m² | - |
| 1778076905 | 12.78° C | 87% | 1020.2 hPa | 0 mm | - | 44 W/m² | - |
| 1778076005 | 12.78° C | 87% | 1019.9 hPa | 0 mm | - | 33 W/m² | - |
| 1778075405 | 12.78° C | 88% | 1019.5 hPa | 0 mm | - | 32 W/m² | - |
| 1778071805 | 12.22° C | 88% | 1019.3 hPa | 0 mm | - | 0 W/m² | - |
| 1778070905 | 12.22° C | 88% | 1019 hPa | 0 mm | - | 0 W/m² | - |
| 1778063705 | 13.89° C | 87% | 1018.2 hPa | 0 mm | - | 0 W/m² | - |
| 1778063105 | 13.89° C | 87% | 1018.2 hPa | 0 mm | - | 0 W/m² | - |
| 1778055905 | 14.44° C | 87% | 1017.6 hPa | 0 mm | - | 0 W/m² | - |
| 1778055305 | 14.44° C | 87% | 1017.6 hPa | 0 mm | - | 0 W/m² | - |
| 1778054705 | 14.44° C | 87% | 1017.6 hPa | 0 mm | - | 0 W/m² | - |
| 1778053505 | 14.44° C | 86% | 1017.3 hPa | 0 mm | - | 0 W/m² | - |
| 1778052605 | 14.44° C | 86% | 1017.2 hPa | 0 mm | - | 0 W/m² | - |
| 1778047806 | 15° C | 85% | 1016.8 hPa | 0 mm | - | 0 W/m² | - |
| 1778046305 | 15° C | 85% | 1016.8 hPa | 0 mm | - | 0 W/m² | - |
| 1778044505 | 15° C | 83% | 1016.6 hPa | 0 mm | - | 0 W/m² | - |
* Rain latest hour (hover to see other rain measurements)
** Current wind speed in m/s (hover to see current wind gust speed)